createdAt,value
2022-12-09T00:00:12.868Z,27.73
2022-12-09T00:02:41.512Z,22.20
2022-12-09T00:05:10.865Z,17.63
2022-12-09T00:07:39.443Z,18.93
2022-12-09T00:10:11.264Z,13.17
2022-12-09T00:12:39.735Z,11.30
2022-12-09T00:15:08.863Z,12.73
2022-12-09T00:17:37.236Z,8.30
2022-12-09T00:20:07.608Z,11.47
2022-12-09T00:22:36.375Z,9.93
2022-12-09T00:25:04.927Z,10.40
2022-12-09T00:27:34.795Z,10.63
2022-12-09T00:30:03.121Z,10.27
2022-12-09T00:32:31.534Z,9.43
2022-12-09T00:35:00.326Z,9.90
2022-12-09T00:37:29.712Z,10.80
2022-12-09T00:40:00.138Z,8.20
2022-12-09T00:42:28.619Z,10.77
2022-12-09T00:44:58.246Z,10.67
2022-12-09T00:47:26.635Z,9.50
2022-12-09T00:49:55.074Z,9.47
2022-12-09T00:52:23.799Z,8.10
2022-12-09T00:54:52.296Z,9.03
2022-12-09T00:57:20.511Z,8.30
2022-12-09T00:59:48.852Z,10.30
2022-12-09T01:02:18.464Z,10.17
2022-12-09T01:04:47.138Z,8.17
2022-12-09T01:07:15.640Z,10.83
2022-12-09T01:09:44.498Z,10.13
2022-12-09T01:12:12.829Z,6.23
2022-12-09T01:14:41.250Z,9.37
2022-12-09T01:17:09.578Z,9.23
2022-12-09T01:19:41.355Z,8.70
2022-12-09T01:22:09.662Z,8.00
2022-12-09T01:24:38.007Z,14.77
2022-12-09T01:27:06.145Z,10.63
2022-12-09T01:29:34.527Z,9.43
2022-12-09T01:32:02.827Z,9.97
2022-12-09T01:34:31.019Z,8.77
2022-12-09T01:37:03.705Z,10.00
2022-12-09T01:39:31.975Z,10.80
2022-12-09T01:42:03.273Z,7.90
2022-12-09T01:44:33.566Z,9.97
2022-12-09T01:47:03.925Z,12.07
2022-12-09T01:49:41.488Z,12.90
2022-12-09T01:52:16.977Z,8.43
2022-12-09T01:54:47.035Z,12.43
2022-12-09T01:57:16.510Z,8.83
2022-12-09T01:59:45.938Z,7.33
2022-12-09T02:02:18.159Z,11.17
2022-12-09T02:04:50.884Z,9.73
2022-12-09T02:07:22.203Z,9.23
2022-12-09T02:09:53.496Z,10.07
2022-12-09T02:12:38.367Z,7.90
2022-12-09T02:15:13.482Z,10.47
2022-12-09T02:17:45.617Z,11.67
2022-12-09T02:20:20.601Z,8.70
2022-12-09T02:23:01.302Z,8.00
2022-12-09T02:25:36.478Z,9.67
2022-12-09T02:28:31.011Z,12.70
2022-12-09T02:31:11.453Z,5.90
2022-12-09T02:34:03.325Z,7.53
2022-12-09T02:36:35.738Z,6.33
2022-12-09T02:39:07.542Z,9.50
2022-12-09T02:41:37.277Z,8.23
2022-12-09T02:44:10.712Z,6.90
2022-12-09T02:46:41.119Z,8.80
2022-12-09T02:49:14.194Z,5.70
2022-12-09T02:51:45.186Z,7.20
2022-12-09T02:54:19.581Z,8.87
2022-12-09T02:56:57.081Z,7.37
2022-12-09T02:59:27.816Z,9.17
2022-12-09T03:02:18.657Z,7.50
2022-12-09T03:04:59.877Z,9.90
2022-12-09T03:07:36.503Z,9.20
2022-12-09T03:10:11.804Z,9.10
2022-12-09T03:12:42.438Z,11.30
2022-12-09T03:15:16.302Z,8.47
2022-12-09T03:17:46.816Z,7.10
2022-12-09T03:20:23.978Z,8.20
2022-12-09T03:22:58.374Z,8.20
2022-12-09T03:25:32.385Z,7.10
2022-12-09T03:28:05.477Z,10.90
2022-12-09T03:30:38.395Z,9.30
2022-12-09T03:33:06.922Z,8.20
2022-12-09T03:35:40.738Z,6.40
2022-12-09T03:38:16.307Z,9.70
2022-12-09T03:40:45.991Z,5.90
2022-12-09T03:43:17.484Z,6.87
2022-12-09T03:45:45.871Z,8.50
2022-12-09T03:48:14.611Z,7.50
2022-12-09T03:50:53.960Z,9.10
2022-12-09T03:53:27.647Z,8.93
2022-12-09T03:56:03.167Z,9.97
2022-12-09T03:58:34.646Z,7.23
2022-12-09T04:01:04.317Z,7.43
2022-12-09T04:03:34.722Z,8.73
2022-12-09T04:06:04.655Z,7.07
2022-12-09T04:08:33.009Z,13.73
2022-12-09T04:11:01.508Z,12.30
2022-12-09T04:13:30.003Z,11.43
2022-12-09T04:15:58.125Z,10.60
2022-12-09T04:18:26.396Z,9.17
2022-12-09T04:20:54.622Z,8.80
2022-12-09T04:23:24.477Z,10.50
2022-12-09T04:25:52.975Z,9.73
2022-12-09T04:28:21.187Z,9.53
2022-12-09T04:30:49.769Z,8.30
2022-12-09T04:33:18.061Z,12.37
2022-12-09T04:35:46.843Z,8.07
2022-12-09T04:38:15.086Z,7.37
2022-12-09T04:40:44.834Z,8.50
2022-12-09T04:43:13.339Z,7.07
2022-12-09T04:45:42.122Z,8.10
2022-12-09T04:48:10.985Z,10.20
2022-12-09T04:50:42.394Z,7.90
2022-12-09T04:53:11.054Z,11.90
2022-12-09T04:55:39.524Z,9.47
2022-12-09T04:58:09.145Z,8.37
2022-12-09T05:00:37.289Z,7.57
2022-12-09T05:03:05.909Z,8.00
2022-12-09T05:05:34.277Z,14.37
2022-12-09T05:08:03.133Z,11.37
2022-12-09T05:10:31.659Z,12.73
2022-12-09T05:13:00.297Z,9.33
2022-12-09T05:15:30.418Z,9.63
2022-12-09T05:17:59.918Z,7.80
2022-12-09T05:20:29.855Z,6.90
2022-12-09T05:22:58.603Z,8.90
2022-12-09T05:25:27.633Z,11.60
2022-12-09T05:27:56.147Z,7.53
2022-12-09T05:30:25.088Z,8.40
2022-12-09T05:32:54.811Z,7.13
2022-12-09T05:35:23.735Z,6.30
2022-12-09T05:37:52.228Z,7.50
2022-12-09T05:40:21.167Z,11.90
2022-12-09T05:42:49.648Z,9.83
2022-12-09T05:45:18.514Z,10.00
2022-12-09T05:47:47.093Z,10.70
2022-12-09T05:50:17.434Z,8.00
2022-12-09T05:52:46.158Z,9.93
2022-12-09T05:55:14.844Z,9.30
2022-12-09T05:57:43.258Z,20.33
2022-12-09T06:00:14.556Z,8.53
2022-12-09T06:02:43.548Z,10.27
2022-12-09T06:05:12.874Z,8.30
2022-12-09T06:07:42.961Z,8.80
2022-12-09T06:10:12.165Z,6.33
2022-12-09T06:12:41.187Z,5.97
2022-12-09T06:15:12.010Z,11.47
2022-12-09T06:17:42.567Z,9.60
2022-12-09T06:20:11.931Z,8.70
2022-12-09T06:22:42.482Z,10.03
2022-12-09T06:25:12.456Z,11.50
2022-12-09T06:27:41.133Z,9.97
2022-12-09T06:30:11.374Z,11.80
2022-12-09T06:32:40.864Z,7.60
2022-12-09T06:35:10.420Z,8.30
2022-12-09T06:37:39.282Z,9.47
2022-12-09T06:40:11.121Z,7.90
2022-12-09T06:42:39.578Z,10.70
2022-12-09T06:45:09.812Z,11.00
2022-12-09T06:47:39.383Z,11.83
2022-12-09T06:50:10.869Z,12.50
2022-12-09T06:52:42.200Z,12.50
2022-12-09T06:55:13.218Z,10.53
2022-12-09T06:57:42.036Z,29.30
2022-12-09T07:00:33.684Z,22.77
2022-12-09T07:03:02.799Z,18.40
2022-12-09T07:05:36.208Z,10.77
2022-12-09T07:08:10.236Z,10.13
2022-12-09T07:10:49.099Z,12.47
2022-12-09T07:13:21.189Z,10.60
2022-12-09T07:15:53.081Z,9.27
2022-12-09T07:18:21.558Z,12.80
2022-12-09T07:20:50.072Z,9.80
2022-12-09T07:23:18.381Z,12.53
2022-12-09T07:25:57.259Z,10.90
2022-12-09T07:28:28.137Z,15.80
2022-12-09T07:30:56.846Z,13.80
2022-12-09T07:33:25.814Z,13.53
2022-12-09T07:35:56.340Z,13.00
2022-12-09T07:38:26.338Z,10.70
2022-12-09T07:40:56.073Z,9.93
2022-12-09T07:43:24.376Z,13.23
2022-12-09T07:46:00.282Z,10.63
2022-12-09T07:48:29.043Z,12.57
2022-12-09T07:51:01.493Z,9.60
2022-12-09T07:53:30.902Z,10.43
2022-12-09T07:56:03.530Z,10.90
2022-12-09T07:58:32.822Z,12.83
2022-12-09T08:01:08.252Z,14.40
2022-12-09T08:03:36.865Z,14.13
2022-12-09T08:06:14.466Z,14.97
2022-12-09T08:08:44.269Z,17.03
2022-12-09T08:11:33.403Z,16.33
2022-12-09T08:14:13.372Z,19.37
2022-12-09T08:17:05.930Z,16.93
2022-12-09T08:19:58.174Z,17.77
2022-12-09T08:22:43.572Z,15.77
2022-12-09T08:25:15.189Z,15.73
2022-12-09T08:27:54.388Z,17.23
2022-12-09T08:30:26.197Z,17.97
2022-12-09T08:32:54.816Z,16.83
2022-12-09T08:35:25.110Z,15.43
2022-12-09T08:37:54.010Z,15.73
2022-12-09T08:40:22.443Z,15.80
2022-12-09T08:42:53.074Z,12.90
2022-12-09T08:45:23.631Z,15.10
2022-12-09T08:47:52.498Z,14.70
2022-12-09T08:50:23.344Z,18.50
2022-12-09T08:52:51.966Z,15.60
2022-12-09T08:55:20.488Z,18.33
2022-12-09T08:57:49.515Z,20.53
2022-12-09T09:00:23.282Z,16.13
2022-12-09T09:02:52.143Z,16.00
2022-12-09T09:05:21.038Z,20.70
2022-12-09T09:07:49.665Z,13.23
2022-12-09T09:10:21.786Z,19.43
2022-12-09T09:12:54.368Z,16.77
2022-12-09T09:15:25.177Z,17.33
2022-12-09T09:17:54.341Z,15.77
2022-12-09T09:20:23.271Z,20.13
2022-12-09T09:22:51.896Z,17.47
2022-12-09T09:25:21.831Z,19.23
2022-12-09T09:27:57.801Z,18.40
2022-12-09T09:30:27.995Z,20.00
2022-12-09T09:32:56.925Z,18.73
2022-12-09T09:35:25.517Z,19.23
2022-12-09T09:37:54.981Z,21.00
2022-12-09T09:40:24.217Z,21.10
2022-12-09T09:42:55.075Z,19.97
2022-12-09T09:45:25.598Z,25.87
2022-12-09T09:48:02.973Z,23.57
2022-12-09T09:50:37.724Z,24.80
2022-12-09T09:53:18.315Z,20.60
2022-12-09T09:55:54.009Z,20.07
2022-12-09T09:58:35.149Z,17.07
2022-12-09T10:01:09.809Z,17.87
2022-12-09T10:03:54.127Z,17.33
2022-12-09T10:06:39.582Z,25.33
2022-12-09T10:09:16.993Z,18.10
2022-12-09T10:12:00.543Z,19.43
2022-12-09T10:14:42.051Z,18.63
2022-12-09T10:17:26.124Z,17.60
2022-12-09T10:20:03.744Z,21.03
2022-12-09T10:22:50.700Z,17.03
2022-12-09T10:25:34.521Z,15.93
2022-12-09T10:28:08.177Z,16.60
2022-12-09T10:30:43.927Z,18.83
2022-12-09T10:33:19.017Z,21.00
2022-12-09T10:35:50.383Z,20.80
2022-12-09T10:38:27.533Z,17.23
2022-12-09T10:41:08.649Z,19.47
2022-12-09T10:43:44.125Z,20.30
2022-12-09T10:46:24.359Z,17.30
2022-12-09T10:49:01.587Z,19.47
2022-12-09T10:51:37.404Z,20.23
2022-12-09T10:54:20.962Z,21.20
2022-12-09T10:57:09.656Z,20.20
2022-12-09T10:59:39.565Z,24.57
2022-12-09T11:02:22.975Z,23.13
2022-12-09T11:04:52.499Z,19.37
2022-12-09T11:07:26.054Z,18.40
2022-12-09T11:10:17.011Z,18.80
2022-12-09T11:12:46.542Z,19.60
2022-12-09T11:15:29.760Z,19.20
2022-12-09T11:18:02.310Z,21.60
2022-12-09T11:20:33.563Z,24.70
2022-12-09T11:23:11.493Z,21.40
2022-12-09T11:25:53.177Z,23.33
2022-12-09T11:28:28.386Z,19.90
2022-12-09T11:33:52.099Z,23.70
2022-12-09T11:36:25.590Z,21.77
2022-12-09T11:39:19.412Z,19.50
2022-12-09T11:42:12.990Z,19.97
2022-12-09T11:44:53.173Z,30.80
2022-12-09T11:47:50.484Z,19.90
2022-12-09T11:50:25.137Z,25.53
2022-12-09T11:53:12.232Z,26.93
2022-12-09T11:55:48.091Z,22.07
2022-12-09T11:58:21.403Z,23.47
2022-12-09T12:00:57.265Z,23.57
2022-12-09T12:03:32.911Z,26.50
2022-12-09T12:06:04.132Z,22.33
2022-12-09T12:08:43.437Z,36.40
2022-12-09T12:11:17.444Z,30.17
2022-12-09T12:13:48.566Z,22.03
2022-12-09T12:16:24.037Z,23.50
2022-12-09T12:18:59.600Z,25.30
2022-12-09T12:21:50.439Z,22.40
2022-12-09T12:25:03.064Z,25.83
2022-12-09T12:27:52.175Z,20.17
2022-12-09T12:30:25.170Z,23.00
2022-12-09T12:33:59.707Z,23.83
2022-12-09T12:36:13.915Z,25.30
2022-12-09T12:39:02.280Z,22.07
2022-12-09T12:41:40.403Z,39.90
2022-12-09T12:44:45.987Z,26.50
2022-12-09T12:47:23.139Z,28.70
2022-12-09T12:50:21.927Z,22.10
2022-12-09T12:53:00.764Z,27.20
2022-12-09T12:55:48.988Z,24.00
2022-12-09T12:58:34.491Z,25.37
2022-12-09T13:01:09.639Z,25.50
2022-12-09T13:03:51.918Z,23.97
2022-12-09T13:06:25.434Z,25.93
2022-12-09T13:09:03.038Z,27.07
2022-12-09T13:11:50.149Z,27.33
2022-12-09T13:14:22.557Z,29.63
2022-12-09T13:16:52.945Z,28.43
2022-12-09T13:19:28.175Z,29.73
2022-12-09T13:21:57.060Z,34.87
2022-12-09T13:24:34.766Z,30.73
2022-12-09T13:27:07.447Z,33.33
2022-12-09T13:29:43.182Z,34.40
2022-12-09T13:32:36.639Z,33.57
2022-12-09T13:35:14.870Z,27.47
2022-12-09T13:37:59.875Z,28.50
2022-12-09T13:40:35.186Z,31.30
2022-12-09T13:43:15.629Z,35.57
2022-12-09T13:45:57.029Z,54.00
2022-12-09T13:48:50.916Z,30.53
2022-12-09T13:51:20.216Z,32.80
2022-12-09T13:53:54.608Z,30.23
2022-12-09T13:56:29.332Z,32.03
2022-12-09T13:59:42.375Z,34.53
2022-12-09T14:02:23.964Z,33.50
2022-12-09T14:05:05.465Z,33.40
2022-12-09T14:07:41.835Z,42.03
2022-12-09T14:10:43.258Z,40.00
2022-12-09T14:13:28.560Z,39.00
2022-12-09T14:16:17.258Z,33.00
2022-12-09T14:18:46.804Z,40.83
2022-12-09T14:21:33.571Z,36.27
2022-12-09T14:24:32.628Z,39.43
2022-12-09T14:27:18.340Z,36.03
2022-12-09T14:29:54.188Z,43.90
2022-12-09T14:32:26.318Z,40.03
2022-12-09T14:35:17.557Z,40.50
2022-12-09T14:38:08.062Z,34.40
2022-12-09T14:40:52.409Z,42.00
2022-12-09T14:44:04.459Z,36.90
2022-12-09T14:46:35.731Z,42.13
2022-12-09T14:49:13.676Z,39.20
2022-12-09T14:51:48.121Z,35.23
2022-12-09T14:54:21.484Z,34.87
2022-12-09T14:56:52.673Z,35.50
2022-12-09T14:59:25.360Z,39.87
2022-12-09T15:01:57.185Z,43.13
2022-12-09T15:04:34.363Z,40.33
2022-12-09T15:07:15.794Z,39.40
2022-12-09T15:09:54.395Z,37.47
2022-12-09T15:12:30.496Z,36.30
2022-12-09T15:15:24.749Z,39.33
2022-12-09T15:17:59.165Z,41.80
2022-12-09T15:20:31.365Z,36.60
2022-12-09T15:23:03.092Z,42.17
2022-12-09T15:25:31.490Z,41.27
2022-12-09T15:28:03.659Z,36.13
2022-12-09T15:30:36.301Z,38.60
2022-12-09T15:33:05.405Z,36.03
2022-12-09T15:35:34.801Z,42.83
2022-12-09T15:38:06.608Z,42.00
2022-12-09T15:40:37.836Z,41.33
2022-12-09T15:43:10.439Z,32.33
2022-12-09T15:45:44.107Z,41.70
2022-12-09T15:48:19.071Z,39.70
2022-12-09T15:50:54.568Z,35.67
2022-12-09T15:53:29.105Z,33.80
2022-12-09T15:56:02.697Z,74.07
2022-12-09T15:58:35.101Z,43.00
2022-12-09T16:01:04.785Z,35.93
2022-12-09T16:03:35.232Z,36.50
2022-12-09T16:06:06.795Z,37.57
2022-12-09T16:08:38.720Z,39.60
2022-12-09T16:11:07.830Z,39.57
2022-12-09T16:13:36.315Z,43.03
2022-12-09T16:16:27.491Z,41.53
2022-12-09T16:18:56.728Z,37.13
2022-12-09T16:21:29.438Z,36.37
2022-12-09T16:24:06.811Z,33.83
2022-12-09T16:26:38.675Z,33.50
2022-12-09T16:29:16.538Z,35.93
2022-12-09T16:31:46.758Z,34.90
2022-12-09T16:34:21.839Z,35.47
2022-12-09T16:36:56.327Z,46.40
2022-12-09T16:39:35.389Z,50.03
2022-12-09T16:42:03.743Z,44.70
2022-12-09T16:44:38.270Z,48.80
2022-12-09T16:47:17.401Z,38.77
2022-12-09T16:49:48.365Z,44.80
2022-12-09T16:52:19.386Z,45.43
2022-12-09T16:54:49.791Z,37.53
2022-12-09T16:57:20.586Z,35.60
2022-12-09T16:59:49.489Z,48.63
2022-12-09T17:02:27.351Z,55.73
2022-12-09T17:04:55.594Z,47.00
2022-12-09T17:07:23.758Z,45.77
2022-12-09T17:09:52.059Z,42.73
2022-12-09T17:12:20.384Z,44.90
2022-12-09T17:14:48.948Z,40.37
2022-12-09T17:17:17.102Z,35.53
2022-12-09T17:19:46.642Z,39.23
2022-12-09T17:22:15.214Z,42.13
2022-12-09T17:24:43.578Z,39.60
2022-12-09T17:27:11.725Z,39.20
2022-12-09T17:29:40.366Z,29.10
2022-12-09T17:32:08.892Z,37.70
2022-12-09T17:34:37.263Z,42.37
2022-12-09T17:37:07.142Z,39.27
2022-12-09T17:39:35.549Z,39.23
2022-12-09T17:42:03.808Z,41.70
2022-12-09T17:44:31.949Z,46.07
2022-12-09T17:47:00.297Z,40.23
2022-12-09T17:49:28.544Z,43.97
2022-12-09T17:51:56.726Z,52.50
2022-12-09T17:54:26.298Z,48.43
2022-12-09T17:56:54.606Z,39.47
2022-12-09T17:59:22.743Z,38.50
2022-12-09T18:01:50.947Z,36.57
2022-12-09T18:04:19.090Z,33.50
2022-12-09T18:06:47.794Z,36.17
2022-12-09T18:09:19.777Z,37.23
2022-12-09T18:11:51.583Z,38.07
2022-12-09T18:14:21.642Z,35.97
2022-12-09T18:16:51.201Z,34.43
2022-12-09T18:19:23.303Z,35.40
2022-12-09T18:21:51.729Z,119.13
2022-12-09T18:24:20.002Z,52.83
2022-12-09T18:26:50.403Z,46.90
2022-12-09T18:29:18.591Z,42.50
2022-12-09T18:31:50.451Z,50.73
2022-12-09T18:34:21.065Z,43.53
2022-12-09T18:36:49.209Z,42.60
2022-12-09T18:39:17.649Z,37.53
2022-12-09T18:41:46.550Z,39.47
2022-12-09T18:44:17.540Z,36.10
2022-12-09T18:46:48.705Z,32.00
2022-12-09T18:49:19.616Z,33.50
2022-12-09T18:51:49.920Z,41.70
2022-12-09T18:54:22.721Z,37.07
2022-12-09T18:56:51.362Z,34.93
2022-12-09T18:59:22.245Z,38.83
2022-12-09T19:01:51.206Z,32.93
2022-12-09T19:04:23.832Z,43.93
2022-12-09T19:06:54.925Z,35.40
2022-12-09T19:09:25.928Z,32.93
2022-12-09T19:11:54.706Z,34.07
2022-12-09T19:14:24.877Z,35.53
2022-12-09T19:16:54.214Z,41.67
2022-12-09T19:19:25.150Z,36.47
2022-12-09T19:21:54.194Z,41.13
2022-12-09T19:24:24.764Z,56.43
2022-12-09T19:26:55.566Z,87.77
2022-12-09T19:29:28.283Z,124.67
2022-12-09T19:31:58.205Z,83.53
2022-12-09T19:34:28.714Z,59.10
2022-12-09T19:36:58.958Z,68.50
2022-12-09T19:39:31.258Z,55.10
2022-12-09T19:42:00.078Z,49.30
2022-12-09T19:45:00.763Z,46.73
2022-12-09T19:47:18.011Z,129.83
2022-12-09T19:49:46.228Z,61.20
2022-12-09T19:52:14.501Z,37.93
2022-12-09T19:54:42.806Z,35.00
2022-12-09T19:57:11.005Z,37.33
2022-12-09T19:59:40.710Z,39.40
2022-12-09T20:02:11.912Z,40.10
2022-12-09T20:04:49.633Z,34.00
2022-12-09T20:07:19.066Z,40.13
2022-12-09T20:09:47.504Z,38.00
2022-12-09T20:12:16.208Z,39.63
2022-12-09T20:14:45.831Z,39.93
2022-12-09T20:17:14.081Z,50.33
2022-12-09T20:19:42.302Z,40.20
2022-12-09T20:22:10.457Z,46.13
2022-12-09T20:24:38.578Z,37.97
2022-12-09T20:27:06.761Z,40.57
2022-12-09T20:29:37.915Z,36.87
2022-12-09T20:32:08.731Z,29.07
2022-12-09T20:34:37.389Z,33.93
2022-12-09T20:37:05.882Z,27.93
2022-12-09T20:39:34.233Z,27.50
2022-12-09T20:42:02.538Z,34.50
2022-12-09T20:44:32.280Z,29.37
2022-12-09T20:47:00.529Z,34.67
2022-12-09T20:49:30.291Z,34.37
2022-12-09T20:51:58.742Z,29.40
2022-12-09T20:54:27.139Z,35.17
2022-12-09T20:56:55.603Z,32.60
2022-12-09T20:59:24.031Z,33.73
2022-12-09T21:01:54.120Z,36.23
2022-12-09T21:04:22.407Z,32.53
2022-12-09T21:06:51.971Z,34.50
2022-12-09T21:09:22.854Z,29.17
2022-12-09T21:11:51.541Z,32.53
2022-12-09T21:14:20.722Z,29.07
2022-12-09T21:16:51.102Z,22.13
2022-12-09T21:19:24.566Z,28.97
2022-12-09T21:21:54.741Z,25.63
2022-12-09T21:24:24.564Z,30.77
2022-12-09T21:26:55.282Z,33.60
2022-12-09T21:29:29.951Z,41.60
2022-12-09T21:32:01.328Z,51.50
2022-12-09T21:34:29.723Z,27.70
2022-12-09T21:36:59.637Z,26.57
2022-12-09T21:39:29.208Z,22.93
2022-12-09T21:41:57.422Z,24.70
2022-12-09T21:44:27.009Z,23.50
2022-12-09T21:46:55.215Z,24.83
2022-12-09T21:49:23.776Z,27.23
2022-12-09T21:51:51.954Z,23.73
2022-12-09T21:54:21.612Z,30.53
2022-12-09T21:56:49.958Z,20.97
2022-12-09T21:59:18.179Z,23.10
2022-12-09T22:01:46.421Z,33.53
2022-12-09T22:04:17.157Z,24.13
2022-12-09T22:06:47.545Z,22.33
2022-12-09T22:09:17.512Z,27.50
2022-12-09T22:11:47.108Z,21.20
2022-12-09T22:14:15.248Z,21.53
2022-12-09T22:16:46.813Z,22.83
2022-12-09T22:19:18.212Z,24.10
2022-12-09T22:21:46.871Z,20.47
2022-12-09T22:24:16.998Z,23.10
2022-12-09T22:26:47.184Z,23.90
2022-12-09T22:29:18.027Z,23.30
2022-12-09T22:31:47.424Z,22.07
2022-12-09T22:34:18.347Z,21.17
2022-12-09T22:36:48.037Z,21.33
2022-12-09T22:39:18.889Z,21.77
2022-12-09T22:41:49.173Z,22.67
2022-12-09T22:44:20.739Z,24.57
2022-12-09T22:46:49.804Z,25.80
2022-12-09T22:49:18.766Z,24.37
2022-12-09T22:51:48.807Z,21.97
2022-12-09T22:54:17.288Z,21.97
2022-12-09T22:56:47.530Z,20.53
2022-12-09T22:59:18.013Z,22.67
2022-12-09T23:01:49.384Z,19.77
2022-12-09T23:04:21.668Z,19.40
2022-12-09T23:06:51.264Z,21.33
2022-12-09T23:09:24.068Z,23.80
2022-12-09T23:11:53.267Z,19.07
2022-12-09T23:14:22.866Z,25.77
2022-12-09T23:16:51.080Z,24.30
2022-12-09T23:19:19.355Z,28.33
2022-12-09T23:21:47.719Z,23.50
2022-12-09T23:24:24.332Z,26.43
2022-12-09T23:26:56.659Z,25.03
2022-12-09T23:29:26.536Z,20.93
2022-12-09T23:31:54.766Z,24.00
2022-12-09T23:34:23.552Z,29.23
2022-12-09T23:36:51.763Z,31.03
2022-12-09T23:39:20.451Z,27.00
2022-12-09T23:41:50.126Z,24.33
2022-12-09T23:44:19.813Z,27.23
2022-12-09T23:46:50.282Z,23.50
2022-12-09T23:49:18.973Z,28.00
2022-12-09T23:51:47.901Z,25.13
2022-12-09T23:54:18.743Z,22.63
2022-12-09T23:56:50.015Z,23.27
2022-12-09T23:59:21.649Z,20.17
